Time;durP1;ratioP1;P1;durP2;ratioP2;P2;SDS_P1;SDS_P2;PMS_P1;PMS_P2;Temp;Humidity;BMP_temperature;BMP_pressure;BME280_temperature;BME280_humidity;BME280_pressure;Samples;Min_cycle;Max_cycle;Signal;HPM_P1;HPM_P2
2022/08/12 00:43:38;;;;;;;5.47;1.83;;;;;;;;;;5010230;28;20679;-64
2022/08/12 00:48:47;;;;;;;7.25;2.20;;;;;;;;;;5012388;28;20251;-64
2022/08/12 00:51:12;;;;;;;7.15;2.15;;;;;;;;;;5011063;28;20240;-65
2022/08/12 00:53:37;;;;;;;7.20;2.10;;;;;;;;;;5011015;28;20209;-65
2022/08/12 00:56:03;;;;;;;5.68;1.90;;;;;;;;;;5010545;28;20217;-65
2022/08/12 00:58:29;;;;;;;3.85;2.00;;;;;;;;;;5011446;28;20679;-65
2022/08/12 01:01:01;;;;;;;5.32;2.20;;;;;;;;;;5014130;28;20228;-65
2022/08/12 01:11:27;;;;;;;5.13;2.10;;;;;;;;;;5015291;28;20659;-64
2022/08/12 01:11:59;;;;;;;5.22;2.22;;;;;;;;;;5014082;28;20262;-65
2022/08/12 01:14:25;;;;;;;5.38;2.53;;;;;;;;;;5013840;28;20220;-65
2022/08/12 01:16:50;;;;;;;5.07;2.45;;;;;;;;;;5013951;28;20259;-64
2022/08/12 01:19:16;;;;;;;5.05;2.38;;;;;;;;;;5014181;28;20231;-64
2022/08/12 01:21:43;;;;;;;4.68;2.50;;;;;;;;;;5014026;28;20753;-64
2022/08/12 01:24:12;;;;;;;5.38;2.45;;;;;;;;;;5014841;28;20208;-64
2022/08/12 01:26:38;;;;;;;4.03;2.30;;;;;;;;;;5013186;28;20213;-64
2022/08/12 01:29:03;;;;;;;4.55;2.38;;;;;;;;;;5014853;28;20228;-64
2022/08/12 01:31:29;;;;;;;6.82;2.50;;;;;;;;;;5013712;28;20251;-64
2022/08/12 01:33:58;;;;;;;5.93;2.60;;;;;;;;;;5014398;28;20228;-64
2022/08/12 01:36:24;;;;;;;5.70;2.47;;;;;;;;;;5014062;28;20220;-64
2022/08/12 01:38:50;;;;;;;5.72;2.70;;;;;;;;;;5014902;28;20212;-64
2022/08/12 01:41:15;;;;;;;8.07;2.65;;;;;;;;;;5013794;28;20326;-64
2022/08/12 01:43:40;;;;;;;5.55;2.75;;;;;;;;;;5014775;28;20270;-64
2022/08/12 01:46:21;;;;;;;4.20;2.40;;;;;;;;;;5014173;28;20213;-64
2022/08/12 01:49:06;;;;;;;10.32;2.63;;;;;;;;;;5013746;28;20248;-64
2022/08/12 01:51:41;;;;;;;3.97;2.20;;;;;;;;;;5014239;28;20209;-64
2022/08/12 01:54:09;;;;;;;4.47;2.10;;;;;;;;;;5013891;28;20248;-64
2022/08/12 01:56:42;;;;;;;5.03;2.30;;;;;;;;;;5013461;28;20690;-64
2022/08/12 01:59:45;;;;;;;8.32;2.50;;;;;;;;;;5012989;28;20262;-64
2022/08/12 02:02:03;;;;;;;4.78;2.55;;;;;;;;;;5013254;28;20354;-63
2022/08/12 02:13:11;;;;;;;4.45;2.72;;;;;;;;;;5011858;28;20301;-64
2022/08/12 02:15:40;;;;;;;6.65;2.72;;;;;;;;;;5012265;28;20267;-64
2022/08/12 02:18:18;;;;;;;7.95;3.20;;;;;;;;;;5013728;28;20209;-65
2022/08/12 02:21:02;;;;;;;6.22;2.92;;;;;;;;;;5012637;28;20213;-64
2022/08/12 02:23:27;;;;;;;6.38;2.58;;;;;;;;;;5013421;28;20270;-64
2022/08/12 02:25:55;;;;;;;7.28;2.50;;;;;;;;;;5013661;28;20606;-64
2022/08/12 02:28:21;;;;;;;6.57;2.53;;;;;;;;;;5013826;28;20228;-64
2022/08/12 02:30:46;;;;;;;6.18;2.90;;;;;;;;;;5012102;28;20300;-64
2022/08/12 02:33:12;;;;;;;8.30;2.80;;;;;;;;;;5013283;28;20216;-64
2022/08/12 02:35:38;;;;;;;5.15;2.50;;;;;;;;;;5013649;28;20663;-64
2022/08/12 02:38:05;;;;;;;6.70;3.13;;;;;;;;;;5012225;28;20212;-64
2022/08/12 02:40:31;;;;;;;6.40;2.60;;;;;;;;;;5013505;28;20308;-64
2022/08/12 02:42:58;;;;;;;7.47;3.08;;;;;;;;;;5013110;28;20315;-64
2022/08/12 02:45:45;;;;;;;5.40;2.67;;;;;;;;;;5013087;28;20244;-64
2022/08/12 02:48:24;;;;;;;4.72;2.67;;;;;;;;;;5013159;28;20315;-64
2022/08/12 02:50:50;;;;;;;10.18;3.75;;;;;;;;;;5011895;28;20222;-64
2022/08/12 02:53:16;;;;;;;5.40;2.55;;;;;;;;;;5013245;28;20213;-64
2022/08/12 02:55:44;;;;;;;6.05;3.10;;;;;;;;;;5012066;28;20216;-64
2022/08/12 02:58:09;;;;;;;5.38;3.05;;;;;;;;;;5012801;28;20209;-63
2022/08/12 03:00:35;;;;;;;7.03;2.90;;;;;;;;;;5013230;28;20316;-64
2022/08/12 03:03:03;;;;;;;7.82;2.92;;;;;;;;;;5011779;28;20281;-65
2022/08/12 03:05:29;;;;;;;5.03;2.70;;;;;;;;;;5012882;28;20228;-64
2022/08/12 03:07:54;;;;;;;6.65;3.10;;;;;;;;;;5011710;28;20695;-64
2022/08/12 03:10:21;;;;;;;7.93;3.25;;;;;;;;;;5011710;28;20370;-64
2022/08/12 03:12:46;;;;;;;7.03;3.10;;;;;;;;;;5012459;28;20240;-64
2022/08/12 03:15:13;;;;;;;6.10;3.22;;;;;;;;;;5012580;28;20302;-64
2022/08/12 03:17:48;;;;;;;7.63;2.85;;;;;;;;;;5013082;28;20683;-64
2022/08/12 03:20:15;;;;;;;8.13;3.10;;;;;;;;;;5012763;28;20246;-64
2022/08/12 03:22:40;;;;;;;8.82;3.10;;;;;;;;;;5011508;28;20220;-64
2022/08/12 03:25:06;;;;;;;6.70;2.83;;;;;;;;;;5010732;28;20220;-64
2022/08/12 03:27:31;;;;;;;6.30;3.20;;;;;;;;;;5013020;28;20235;-64
2022/08/12 03:29:56;;;;;;;5.05;2.97;;;;;;;;;;5012846;28;20231;-64
2022/08/12 03:32:22;;;;;;;6.88;3.25;;;;;;;;;;5010746;28;20215;-64
2022/08/12 03:34:49;;;;;;;7.75;2.88;;;;;;;;;;5011782;28;20287;-64
2022/08/12 03:37:15;;;;;;;6.47;3.60;;;;;;;;;;5012388;28;20646;-64
2022/08/12 03:39:42;;;;;;;5.38;3.28;;;;;;;;;;5011289;28;20747;-63
2022/08/12 03:42:11;;;;;;;5.72;3.60;;;;;;;;;;5011031;28;20220;-64
2022/08/12 04:01:00;;;;;;;6.88;3.38;;;;;;;;;;5011979;28;20267;-64
2022/08/12 04:06:09;;;;;;;5.15;3.08;;;;;;;;;;5011126;28;20258;-64
2022/08/12 04:08:35;;;;;;;6.65;3.33;;;;;;;;;;5011988;28;20231;-64
2022/08/12 04:13:47;;;;;;;8.88;3.15;;;;;;;;;;5006545;28;20278;-64
2022/08/12 04:16:13;;;;;;;7.78;3.30;;;;;;;;;;5011565;28;20209;-63
2022/08/12 04:18:39;;;;;;;8.02;3.38;;;;;;;;;;5011091;28;20213;-64
2022/08/12 04:21:08;;;;;;;6.75;3.03;;;;;;;;;;5011531;28;20217;-64
2022/08/12 04:23:34;;;;;;;6.38;3.38;;;;;;;;;;5012803;28;20235;-64
2022/08/12 04:25:59;;;;;;;5.97;3.58;;;;;;;;;;5012355;28;20675;-63
2022/08/12 04:28:26;;;;;;;6.43;3.20;;;;;;;;;;5011543;28;20716;-63
2022/08/12 04:30:51;;;;;;;5.88;2.90;;;;;;;;;;5012497;28;20243;-63
2022/08/12 04:33:18;;;;;;;4.00;2.92;;;;;;;;;;5010594;28;20664;-63
2022/08/12 04:35:43;;;;;;;5.97;2.90;;;;;;;;;;5014074;28;20220;-64
2022/08/12 04:38:08;;;;;;;8.13;3.15;;;;;;;;;;5015917;28;20219;-64
2022/08/12 04:40:35;;;;;;;6.43;3.05;;;;;;;;;;5014525;28;20223;-64
2022/08/12 04:43:00;;;;;;;5.88;3.20;;;;;;;;;;5015383;28;20212;-64
2022/08/12 04:45:26;;;;;;;8.38;3.30;;;;;;;;;;5014614;28;20211;-64
2022/08/12 04:47:51;;;;;;;9.15;3.30;;;;;;;;;;5015878;28;20213;-64
2022/08/12 04:50:17;;;;;;;7.47;3.05;;;;;;;;;;5013573;28;20599;-64
2022/08/12 04:52:42;;;;;;;7.65;3.10;;;;;;;;;;5015674;28;20675;-64
2022/08/12 04:55:09;;;;;;;7.85;3.10;;;;;;;;;;5015285;28;20216;-64
2022/08/12 04:57:34;;;;;;;4.50;2.90;;;;;;;;;;5015268;28;20244;-65
2022/08/12 05:00:00;;;;;;;5.60;3.08;;;;;;;;;;5015280;28;20247;-65
2022/08/12 05:02:25;;;;;;;5.55;2.75;;;;;;;;;;5015183;28;20642;-64
2022/08/12 05:04:51;;;;;;;6.68;2.70;;;;;;;;;;5014850;28;20239;-64
2022/08/12 05:07:16;;;;;;;6.20;3.05;;;;;;;;;;5013534;28;20224;-64
2022/08/12 05:09:42;;;;;;;6.60;3.05;;;;;;;;;;5015644;28;20839;-64
2022/08/12 05:12:07;;;;;;;5.53;3.10;;;;;;;;;;5014549;28;20271;-64
2022/08/12 05:14:32;;;;;;;7.07;3.30;;;;;;;;;;5015071;28;20209;-64
2022/08/12 05:16:59;;;;;;;6.45;3.17;;;;;;;;;;5015522;28;20675;-64
2022/08/12 05:19:25;;;;;;;6.65;3.33;;;;;;;;;;5014446;28;20258;-64
2022/08/12 05:21:50;;;;;;;6.20;3.38;;;;;;;;;;5015222;28;20347;-64
2022/08/12 05:24:16;;;;;;;8.05;3.70;;;;;;;;;;5013643;28;20688;-64
2022/08/12 05:26:42;;;;;;;5.05;3.40;;;;;;;;;;5014781;28;20213;-64
2022/08/12 05:29:11;;;;;;;9.38;3.50;;;;;;;;;;5014409;28;20215;-64
2022/08/12 05:31:37;;;;;;;7.93;3.58;;;;;;;;;;5014883;28;20216;-64
2022/08/12 05:34:04;;;;;;;6.95;3.40;;;;;;;;;;5014645;28;20204;-64
2022/08/12 05:36:29;;;;;;;6.18;3.42;;;;;;;;;;5014933;28;20212;-64
2022/08/12 05:38:55;;;;;;;7.18;3.05;;;;;;;;;;5014417;28;20262;-64
2022/08/12 05:41:20;;;;;;;8.32;3.17;;;;;;;;;;5014492;28;20232;-64
2022/08/12 05:43:52;;;;;;;6.97;3.58;;;;;;;;;;5014788;28;20220;-64
2022/08/12 05:46:18;;;;;;;8.15;3.90;;;;;;;;;;5012426;28;20741;-64
2022/08/12 05:48:43;;;;;;;8.25;4.20;;;;;;;;;;5014889;28;20213;-64
2022/08/12 05:51:10;;;;;;;7.22;3.47;;;;;;;;;;5013901;28;20266;-64
2022/08/12 05:53:36;;;;;;;5.18;3.80;;;;;;;;;;5014199;28;20270;-64
2022/08/12 05:56:01;;;;;;;8.98;3.85;;;;;;;;;;5012904;28;20220;-64
2022/08/12 05:58:27;;;;;;;9.38;3.80;;;;;;;;;;5014868;28;20299;-64
2022/08/12 06:00:53;;;;;;;10.07;4.18;;;;;;;;;;5014052;28;20745;-64
2022/08/12 06:03:20;;;;;;;6.78;3.90;;;;;;;;;;5013668;28;20221;-64
2022/08/12 06:05:48;;;;;;;9.77;3.92;;;;;;;;;;5014585;28;20263;-64
2022/08/12 06:08:14;;;;;;;6.18;3.90;;;;;;;;;;5013182;28;20282;-64
2022/08/12 06:10:40;;;;;;;8.10;4.10;;;;;;;;;;5014338;28;20868;-64
2022/08/12 06:13:05;;;;;;;7.38;3.80;;;;;;;;;;5014107;28;20216;-64
2022/08/12 06:15:31;;;;;;;5.65;3.50;;;;;;;;;;5012394;28;20216;-64
2022/08/12 06:18:04;;;;;;;9.35;3.75;;;;;;;;;;5014285;28;20216;-64
2022/08/12 06:20:29;;;;;;;8.15;3.83;;;;;;;;;;5013976;28;20359;-64
2022/08/12 06:22:54;;;;;;;8.18;3.85;;;;;;;;;;5013795;28;20292;-64
2022/08/12 06:25:20;;;;;;;7.80;3.55;;;;;;;;;;5013485;28;20220;-64
2022/08/12 06:27:47;;;;;;;6.45;4.20;;;;;;;;;;5013614;28;20220;-64
2022/08/12 06:30:14;;;;;;;6.47;3.83;;;;;;;;;;5013620;28;20208;-64
2022/08/12 06:32:40;;;;;;;7.40;4.03;;;;;;;;;;5013906;28;20296;-64
2022/08/12 06:35:06;;;;;;;6.47;4.28;;;;;;;;;;5012927;28;20644;-64
2022/08/12 06:37:38;;;;;;;8.38;4.05;;;;;;;;;;5013862;28;20230;-64
2022/08/12 06:40:04;;;;;;;8.32;4.43;;;;;;;;;;5013235;28;20587;-64
2022/08/12 06:42:48;;;;;;;8.77;4.28;;;;;;;;;;5013177;28;20671;-64
2022/08/12 06:45:14;;;;;;;9.27;4.40;;;;;;;;;;5013074;28;20212;-64
2022/08/12 06:47:40;;;;;;;7.72;4.03;;;;;;;;;;5013918;28;20231;-64
2022/08/12 06:50:05;;;;;;;7.97;4.20;;;;;;;;;;5012680;28;20209;-64
2022/08/12 06:52:31;;;;;;;10.85;4.32;;;;;;;;;;5013480;28;20217;-64
2022/08/12 06:54:57;;;;;;;7.57;3.67;;;;;;;;;;5013595;28;20266;-64
2022/08/12 06:57:26;;;;;;;8.80;3.90;;;;;;;;;;5012130;28;20254;-64
2022/08/12 06:59:52;;;;;;;6.78;3.70;;;;;;;;;;5013531;28;20212;-64
2022/08/12 07:02:19;;;;;;;7.45;4.13;;;;;;;;;;5012994;28;20302;-64
2022/08/12 07:04:46;;;;;;;8.10;4.00;;;;;;;;;;5012962;28;20211;-64
2022/08/12 07:07:11;;;;;;;8.13;3.67;;;;;;;;;;5012409;28;20225;-64
2022/08/12 07:09:37;;;;;;;6.78;3.53;;;;;;;;;;5013259;28;20220;-64
2022/08/12 07:12:02;;;;;;;5.07;3.42;;;;;;;;;;5012556;28;20240;-64
2022/08/12 07:14:28;;;;;;;10.43;3.70;;;;;;;;;;5012980;28;20212;-64
2022/08/12 07:16:55;;;;;;;5.32;2.85;;;;;;;;;;5012738;28;20215;-64
2022/08/12 07:19:20;;;;;;;5.65;3.33;;;;;;;;;;5012833;28;20224;-64
2022/08/12 07:21:46;;;;;;;7.88;3.30;;;;;;;;;;5012765;28;20232;-64
2022/08/12 07:24:11;;;;;;;10.38;3.10;;;;;;;;;;5012258;28;20259;-63
2022/08/12 07:26:40;;;;;;;8.27;3.40;;;;;;;;;;5013205;28;20291;-64
2022/08/12 07:29:08;;;;;;;6.65;3.03;;;;;;;;;;5012564;28;20212;-62
2022/08/12 07:31:33;;;;;;;6.97;3.00;;;;;;;;;;5012678;28;20331;-64
2022/08/12 07:34:00;;;;;;;5.88;3.00;;;;;;;;;;5012985;28;20684;-64
2022/08/12 07:36:26;;;;;;;5.15;3.05;;;;;;;;;;5012328;28;20209;-64
2022/08/12 07:38:51;;;;;;;7.53;3.95;;;;;;;;;;5012057;28;20282;-62
2022/08/12 07:41:17;;;;;;;7.07;4.35;;;;;;;;;;5012250;28;20244;-63
2022/08/12 07:43:44;;;;;;;10.07;4.03;;;;;;;;;;5012766;28;20271;-64
2022/08/12 07:46:11;;;;;;;9.10;3.83;;;;;;;;;;5011861;28;20211;-64
2022/08/12 07:48:36;;;;;;;7.03;3.92;;;;;;;;;;5012482;28;20235;-63
2022/08/12 07:51:02;;;;;;;9.10;4.43;;;;;;;;;;5012400;28;20592;-65
2022/08/12 07:53:27;;;;;;;6.38;3.70;;;;;;;;;;5011839;28;20267;-64
2022/08/12 07:55:52;;;;;;;6.82;3.83;;;;;;;;;;5012596;28;20223;-64
2022/08/12 07:58:18;;;;;;;9.95;3.97;;;;;;;;;;5012563;28;20695;-64
2022/08/12 08:00:43;;;;;;;10.25;4.45;;;;;;;;;;5012062;28;20228;-64
2022/08/12 08:03:08;;;;;;;11.23;4.18;;;;;;;;;;5012203;28;20785;-64
2022/08/12 08:05:38;;;;;;;10.60;3.88;;;;;;;;;;5012655;28;20235;-64
2022/08/12 08:08:13;;;;;;;14.63;4.00;;;;;;;;;;5011487;28;20224;-64
2022/08/12 08:10:38;;;;;;;6.90;4.22;;;;;;;;;;5014382;28;20315;-64
2022/08/12 08:13:05;;;;;;;7.88;4.15;;;;;;;;;;5016363;28;20232;-64
2022/08/12 08:15:32;;;;;;;13.68;3.92;;;;;;;;;;5014752;28;20629;-64
2022/08/12 08:18:01;;;;;;;9.50;4.53;;;;;;;;;;5015094;28;20212;-63
2022/08/12 08:20:27;;;;;;;7.50;4.45;;;;;;;;;;5015650;28;20223;-61
2022/08/12 08:22:54;;;;;;;7.97;4.15;;;;;;;;;;5016224;28;20216;-63
2022/08/12 08:25:19;;;;;;;8.85;4.65;;;;;;;;;;5014461;28;20614;-64
2022/08/12 08:27:45;;;;;;;7.18;4.40;;;;;;;;;;5016133;28;20208;-63
2022/08/12 08:30:11;;;;;;;8.25;4.07;;;;;;;;;;5015785;28;20588;-64
2022/08/12 08:32:36;;;;;;;6.88;4.03;;;;;;;;;;5016180;28;20216;-64
2022/08/12 08:35:02;;;;;;;9.15;3.67;;;;;;;;;;5015306;28;20254;-64
2022/08/12 08:37:27;;;;;;;9.23;3.97;;;;;;;;;;5015855;28;20216;-64
2022/08/12 08:39:52;;;;;;;6.25;3.30;;;;;;;;;;5015983;28;20205;-64
2022/08/12 08:42:38;;;;;;;11.05;3.70;;;;;;;;;;5014726;28;20224;-64
2022/08/12 08:45:11;;;;;;;7.15;3.47;;;;;;;;;;5015506;28;20569;-61
2022/08/12 08:47:43;;;;;;;8.85;3.03;;;;;;;;;;5015965;28;20212;-64
2022/08/12 08:50:08;;;;;;;7.18;3.00;;;;;;;;;;5014940;28;20204;-64
2022/08/12 08:52:36;;;;;;;7.95;3.00;;;;;;;;;;5015693;28;20216;-64
2022/08/12 08:55:01;;;;;;;7.88;2.90;;;;;;;;;;5015418;28;20770;-64
2022/08/12 08:57:26;;;;;;;8.30;3.05;;;;;;;;;;5015344;28;20212;-62
2022/08/12 08:59:52;;;;;;;7.40;2.90;;;;;;;;;;5015474;28;20275;-62
2022/08/12 09:02:17;;;;;;;8.20;3.30;;;;;;;;;;5015227;28;20229;-64
2022/08/12 09:04:44;;;;;;;14.35;3.17;;;;;;;;;;5014999;28;20217;-64
2022/08/12 09:07:11;;;;;;;6.60;2.53;;;;;;;;;;5014838;28;20217;-64
2022/08/12 09:09:36;;;;;;;9.18;2.58;;;;;;;;;;5015039;28;20216;-64
2022/08/12 09:14:47;;;;;;;6.78;2.28;;;;;;;;;;5015626;28;20247;-65
2022/08/12 09:17:12;;;;;;;6.32;2.50;;;;;;;;;;5014480;28;20698;-64
2022/08/12 09:19:38;;;;;;;6.40;2.35;;;;;;;;;;5015062;28;20270;-63
2022/08/12 09:22:06;;;;;;;5.50;2.40;;;;;;;;;;5014596;28;20225;-64
2022/08/12 09:24:31;;;;;;;7.88;2.50;;;;;;;;;;5014613;28;20663;-63
2022/08/12 09:26:57;;;;;;;11.05;2.97;;;;;;;;;;5015097;28;20372;-64
2022/08/12 09:29:22;;;;;;;8.45;3.17;;;;;;;;;;5014824;28;20224;-63
2022/08/12 09:31:50;;;;;;;6.53;2.90;;;;;;;;;;5014683;28;20208;-64
2022/08/12 09:34:17;;;;;;;4.45;2.50;;;;;;;;;;5014225;28;20266;-61
2022/08/12 09:36:42;;;;;;;9.30;2.58;;;;;;;;;;5015113;28;20602;-61
2022/08/12 09:39:08;;;;;;;6.65;2.80;;;;;;;;;;5014100;28;20217;-64
2022/08/12 09:41:37;;;;;;;8.60;2.67;;;;;;;;;;5014451;28;20234;-63
2022/08/12 09:46:46;;;;;;;8.88;2.70;;;;;;;;;;5014241;28;20286;-63
2022/08/12 09:49:11;;;;;;;6.20;2.67;;;;;;;;;;5014163;28;20687;-63
2022/08/12 09:51:37;;;;;;;7.22;2.63;;;;;;;;;;5014408;28;20216;-64
2022/08/12 09:54:03;;;;;;;8.23;2.80;;;;;;;;;;5014327;28;20223;-64
2022/08/12 09:56:31;;;;;;;4.90;2.28;;;;;;;;;;5014301;28;20208;-64
2022/08/12 09:58:56;;;;;;;5.10;2.50;;;;;;;;;;5014130;28;20223;-64
2022/08/12 10:01:22;;;;;;;5.05;2.53;;;;;;;;;;5014309;28;20220;-64
2022/08/12 10:03:48;;;;;;;3.63;2.20;;;;;;;;;;5014394;28;20221;-64
2022/08/12 10:06:13;;;;;;;8.40;2.30;;;;;;;;;;5013518;28;20566;-64
2022/08/12 10:08:39;;;;;;;6.45;2.20;;;;;;;;;;5014252;28;20303;-64
2022/08/12 10:13:51;;;;;;;4.38;2.00;;;;;;;;;;5014021;28;20223;-63
2022/08/12 10:16:18;;;;;;;4.90;2.20;;;;;;;;;;5013680;28;20307;-64
2022/08/12 10:18:46;;;;;;;9.30;2.58;;;;;;;;;;5014262;28;20279;-64
2022/08/12 10:21:12;;;;;;;7.78;2.40;;;;;;;;;;5013320;28;20707;-63
2022/08/12 10:23:37;;;;;;;4.78;2.10;;;;;;;;;;5014022;28;20224;-63
2022/08/12 10:31:31;;;;;;;5.85;2.15;;;;;;;;;;5006198;28;20266;-63
2022/08/12 10:33:56;;;;;;;4.78;2.03;;;;;;;;;;5012632;28;20307;-64
2022/08/12 10:36:23;;;;;;;6.93;2.30;;;;;;;;;;5013625;28;20244;-63
2022/08/12 10:38:49;;;;;;;7.45;2.10;;;;;;;;;;5013563;28;20220;-63
2022/08/12 10:44:01;;;;;;;8.75;2.00;;;;;;;;;;5013569;28;20711;-63
2022/08/12 10:46:26;;;;;;;6.85;2.20;;;;;;;;;;5005502;28;20215;-64
2022/08/12 10:48:52;;;;;;;7.13;2.70;;;;;;;;;;5013223;28;20307;-64
2022/08/12 10:51:18;;;;;;;4.97;2.25;;;;;;;;;;5012977;28;20221;-64
2022/08/12 10:53:44;;;;;;;4.47;2.53;;;;;;;;;;5013592;28;20255;-64
2022/08/12 10:56:10;;;;;;;5.65;2.08;;;;;;;;;;5012679;28;20222;-64
2022/08/12 10:58:36;;;;;;;11.13;2.40;;;;;;;;;;5013358;28;20706;-63
2022/08/12 11:01:04;;;;;;;5.30;2.20;;;;;;;;;;5013067;28;20236;-64
2022/08/12 11:03:33;;;;;;;9.05;2.03;;;;;;;;;;5012878;28;20208;-64
2022/08/12 11:05:58;;;;;;;5.80;2.22;;;;;;;;;;5013312;28;20208;-63
2022/08/12 11:08:26;;;;;;;6.38;2.08;;;;;;;;;;5012624;28;20221;-64
2022/08/12 11:10:52;;;;;;;5.53;2.88;;;;;;;;;;5012779;28;20679;-64
2022/08/12 11:13:18;;;;;;;6.32;2.20;;;;;;;;;;5012480;28;20299;-64
2022/08/12 11:15:44;;;;;;;4.85;2.45;;;;;;;;;;5013205;28;20655;-64
2022/08/12 11:18:10;;;;;;;6.57;3.50;;;;;;;;;;5012653;28;20215;-63
2022/08/12 11:20:35;;;;;;;5.90;2.30;;;;;;;;;;5012880;28;20289;-64
2022/08/12 11:23:00;;;;;;;6.75;2.20;;;;;;;;;;5012735;28;20699;-64
2022/08/12 11:25:26;;;;;;;6.53;2.20;;;;;;;;;;5013186;28;20212;-63
2022/08/12 11:27:51;;;;;;;7.22;2.10;;;;;;;;;;5012755;28;20223;-64
2022/08/12 11:30:17;;;;;;;5.28;2.53;;;;;;;;;;5012123;28;20223;-63
2022/08/12 11:32:42;;;;;;;4.28;2.10;;;;;;;;;;5013148;28;20219;-63
2022/08/12 11:35:08;;;;;;;7.90;2.13;;;;;;;;;;5012645;28;20228;-64
2022/08/12 11:37:36;;;;;;;6.28;2.42;;;;;;;;;;5012299;28;20267;-63
2022/08/12 11:40:01;;;;;;;4.32;1.92;;;;;;;;;;5012504;28;20287;-64
2022/08/12 11:42:27;;;;;;;7.95;2.38;;;;;;;;;;5012661;28;20741;-63
2022/08/12 11:44:52;;;;;;;5.95;2.25;;;;;;;;;;5012290;28;20228;-63
2022/08/12 11:47:17;;;;;;;5.38;2.25;;;;;;;;;;5012284;28;20227;-64
2022/08/12 11:49:43;;;;;;;7.45;2.65;;;;;;;;;;5012844;28;20203;-64
2022/08/12 11:52:08;;;;;;;7.75;2.20;;;;;;;;;;5011853;28;20555;-64
2022/08/12 11:54:34;;;;;;;4.35;2.42;;;;;;;;;;5012528;28;20667;-64
2022/08/12 11:56:59;;;;;;;5.20;2.20;;;;;;;;;;5012842;28;20212;-64
2022/08/12 11:59:24;;;;;;;6.25;2.60;;;;;;;;;;5011627;28;20212;-64
2022/08/12 12:01:50;;;;;;;6.10;2.10;;;;;;;;;;5012571;28;20327;-63
2022/08/12 12:04:15;;;;;;;3.22;1.85;;;;;;;;;;5012328;28;20212;-64
2022/08/12 12:06:40;;;;;;;8.10;2.10;;;;;;;;;;5012227;28;20212;-63
2022/08/12 12:09:06;;;;;;;8.10;2.33;;;;;;;;;;5011958;28;20225;-65
2022/08/12 12:11:31;;;;;;;9.43;2.40;;;;;;;;;;5012647;28;20235;-64
2022/08/12 12:13:56;;;;;;;4.35;1.90;;;;;;;;;;5012065;28;20213;-64
2022/08/12 12:16:22;;;;;;;9.68;2.30;;;;;;;;;;5011843;28;20572;-64
2022/08/12 12:18:47;;;;;;;8.35;2.30;;;;;;;;;;5012700;28;20557;-64
2022/08/12 12:21:13;;;;;;;6.15;1.90;;;;;;;;;;5011512;28;20706;-63
2022/08/12 12:23:39;;;;;;;4.65;2.20;;;;;;;;;;5012204;28;20645;-64
2022/08/12 12:26:05;;;;;;;5.88;2.97;;;;;;;;;;5012521;28;20292;-64
2022/08/12 12:28:30;;;;;;;5.53;2.20;;;;;;;;;;5011689;28;20212;-63
2022/08/12 12:30:55;;;;;;;3.75;2.00;;;;;;;;;;5012287;28;20208;-63
2022/08/12 12:33:21;;;;;;;4.85;2.00;;;;;;;;;;5012009;28;20219;-64
2022/08/12 12:35:46;;;;;;;8.40;2.05;;;;;;;;;;5011905;28;20219;-64
2022/08/12 12:38:12;;;;;;;5.13;2.10;;;;;;;;;;5011828;28;20216;-64
2022/08/12 12:40:38;;;;;;;6.57;2.20;;;;;;;;;;5011647;28;20580;-63
2022/08/12 12:43:04;;;;;;;7.05;2.55;;;;;;;;;;5011801;28;20219;-64
2022/08/12 12:45:29;;;;;;;9.40;2.05;;;;;;;;;;5012312;28;20551;-64
2022/08/12 12:47:56;;;;;;;3.83;2.00;;;;;;;;;;5010667;28;20220;-64
2022/08/12 12:50:22;;;;;;;6.53;2.03;;;;;;;;;;5011737;28;20560;-63
2022/08/12 12:52:47;;;;;;;4.93;1.98;;;;;;;;;;5012295;28;20208;-63
2022/08/12 12:55:14;;;;;;;5.72;2.20;;;;;;;;;;5011320;28;20216;-64
2022/08/12 12:57:41;;;;;;;7.80;2.25;;;;;;;;;;5015316;28;20232;-63
2022/08/12 13:00:15;;;;;;;7.72;2.13;;;;;;;;;;5015513;28;20713;-64
2022/08/12 13:02:42;;;;;;;6.93;2.30;;;;;;;;;;5004338;28;20222;-64
2022/08/12 13:05:08;;;;;;;6.35;2.38;;;;;;;;;;4990409;28;20218;-64
2022/08/12 13:07:40;;;;;;;7.00;2.33;;;;;;;;;;5000527;28;20247;-63
2022/08/12 13:10:05;;;;;;;4.20;2.28;;;;;;;;;;5000836;28;20390;-64
2022/08/12 13:12:31;;;;;;;6.53;2.45;;;;;;;;;;4997237;28;20755;-63
2022/08/12 13:14:56;;;;;;;5.10;2.35;;;;;;;;;;4990122;28;20217;-63
2022/08/12 13:17:21;;;;;;;5.05;2.13;;;;;;;;;;4989471;28;20299;-64
2022/08/12 13:19:47;;;;;;;6.68;2.20;;;;;;;;;;4991896;28;20217;-64
2022/08/12 13:22:18;;;;;;;8.13;2.35;;;;;;;;;;4989823;28;20228;-63
2022/08/12 13:24:43;;;;;;;5.97;2.30;;;;;;;;;;5008022;28;20216;-63
2022/08/12 13:27:09;;;;;;;8.13;2.33;;;;;;;;;;5002075;28;20266;-64
2022/08/12 13:29:37;;;;;;;5.13;2.13;;;;;;;;;;5000460;28;20231;-64
2022/08/12 13:32:04;;;;;;;7.38;2.20;;;;;;;;;;5000311;28;20328;-64
2022/08/12 13:34:29;;;;;;;8.15;2.17;;;;;;;;;;5007307;28;20212;-64
2022/08/12 13:36:55;;;;;;;5.43;2.55;;;;;;;;;;5005918;28;20305;-64
2022/08/12 13:39:21;;;;;;;5.68;2.08;;;;;;;;;;4989534;28;20253;-63
2022/08/12 13:41:47;;;;;;;6.75;2.10;;;;;;;;;;5008084;28;20259;-64
2022/08/12 13:44:12;;;;;;;5.28;2.03;;;;;;;;;;5007915;28;20303;-64
2022/08/12 13:46:39;;;;;;;6.03;2.10;;;;;;;;;;4997923;28;20300;-64
2022/08/12 13:49:06;;;;;;;6.70;2.33;;;;;;;;;;5003683;28;20350;-64
2022/08/12 13:51:31;;;;;;;5.47;2.08;;;;;;;;;;5000072;28;20213;-63
2022/08/12 13:53:57;;;;;;;6.68;2.20;;;;;;;;;;4999875;28;20212;-63
2022/08/12 13:56:23;;;;;;;4.90;2.05;;;;;;;;;;5004252;28;20236;-64
2022/08/12 13:58:49;;;;;;;4.47;2.03;;;;;;;;;;5008095;28;20220;-63
2022/08/12 14:01:16;;;;;;;4.38;2.10;;;;;;;;;;5007759;28;20722;-64
2022/08/12 14:03:42;;;;;;;6.75;1.90;;;;;;;;;;5021628;28;20302;-63
2022/08/12 14:06:07;;;;;;;6.38;2.20;;;;;;;;;;5033254;28;20294;-64
2022/08/12 14:08:32;;;;;;;10.70;2.08;;;;;;;;;;5032569;28;20278;-64
2022/08/12 14:10:59;;;;;;;5.35;2.00;;;;;;;;;;5029581;28;20227;-63
2022/08/12 14:13:26;;;;;;;8.10;2.28;;;;;;;;;;4993845;28;20255;-64
2022/08/12 14:15:52;;;;;;;7.15;2.10;;;;;;;;;;5002277;28;20648;-64
2022/08/12 14:18:18;;;;;;;6.10;2.10;;;;;;;;;;4994314;28;20237;-64
2022/08/12 14:20:45;;;;;;;4.88;2.08;;;;;;;;;;4994129;28;20619;-63
2022/08/12 14:23:12;;;;;;;4.38;2.10;;;;;;;;;;4994144;28;20205;-64
2022/08/12 14:25:38;;;;;;;7.88;2.20;;;;;;;;;;4994705;28;20263;-63
2022/08/12 14:28:10;;;;;;;6.47;2.75;;;;;;;;;;4993862;28;20225;-63
2022/08/12 14:30:36;;;;;;;4.80;1.92;;;;;;;;;;4994531;28;20259;-63
2022/08/12 14:33:02;;;;;;;6.25;2.03;;;;;;;;;;4993343;28;20247;-64
2022/08/12 14:35:27;;;;;;;4.47;1.83;;;;;;;;;;4994267;28;20209;-63
2022/08/12 14:37:52;;;;;;;4.07;2.00;;;;;;;;;;5002107;28;20729;-64
2022/08/12 14:40:18;;;;;;;7.78;2.40;;;;;;;;;;5012834;28;20749;-63
2022/08/12 14:42:43;;;;;;;5.57;2.00;;;;;;;;;;5013533;28;20223;-64
2022/08/12 14:45:09;;;;;;;5.18;2.20;;;;;;;;;;5013283;28;20220;-64
2022/08/12 14:47:34;;;;;;;8.85;2.40;;;;;;;;;;5013066;28;20212;-63
2022/08/12 14:49:59;;;;;;;5.60;1.85;;;;;;;;;;5013565;28;20208;-64
2022/08/12 14:52:24;;;;;;;8.57;2.00;;;;;;;;;;5013370;28;20207;-64
2022/08/12 14:54:50;;;;;;;4.75;2.20;;;;;;;;;;5013146;28;20219;-63
2022/08/12 14:57:15;;;;;;;5.63;1.80;;;;;;;;;;5013054;28;20205;-64
2022/08/12 15:02:28;;;;;;;5.22;1.67;;;;;;;;;;5012009;28;20572;-64
2022/08/12 15:04:57;;;;;;;8.00;2.20;;;;;;;;;;5013017;28;20578;-64
2022/08/12 15:07:25;;;;;;;4.25;1.70;;;;;;;;;;5012694;28;20555;-64
2022/08/12 15:09:51;;;;;;;6.40;2.05;;;;;;;;;;5012749;28;20220;-63
2022/08/12 15:12:18;;;;;;;6.50;1.90;;;;;;;;;;5012634;28;20599;-64
2022/08/12 15:14:43;;;;;;;3.97;1.83;;;;;;;;;;5013010;28;20212;-63
2022/08/12 15:17:09;;;;;;;5.82;1.75;;;;;;;;;;5012191;28;20231;-64
2022/08/12 15:19:34;;;;;;;8.60;1.98;;;;;;;;;;5012815;28;20220;-64
2022/08/12 15:21:59;;;;;;;4.97;2.00;;;;;;;;;;5013175;28;20583;-63
2022/08/12 15:24:24;;;;;;;4.15;1.60;;;;;;;;;;5012124;28;20436;-63
2022/08/12 15:26:50;;;;;;;4.40;1.58;;;;;;;;;;5013234;28;20578;-64
2022/08/12 15:29:15;;;;;;;6.40;1.90;;;;;;;;;;5012327;28;20211;-63
2022/08/12 15:31:40;;;;;;;3.65;1.70;;;;;;;;;;5011589;28;20583;-63
2022/08/12 15:34:06;;;;;;;4.38;1.80;;;;;;;;;;5012340;28;20668;-64
2022/08/12 15:36:33;;;;;;;4.28;1.77;;;;;;;;;;5012425;28;20292;-64
2022/08/12 15:38:58;;;;;;;4.65;1.60;;;;;;;;;;5012821;28;20219;-63
2022/08/12 15:41:24;;;;;;;6.85;2.10;;;;;;;;;;5012536;28;20217;-64
2022/08/12 15:43:50;;;;;;;5.80;1.58;;;;;;;;;;5012168;28;20213;-64
2022/08/12 15:46:15;;;;;;;4.68;1.55;;;;;;;;;;5012228;28;20212;-63
2022/08/12 15:48:42;;;;;;;7.05;2.05;;;;;;;;;;5012770;28;20260;-63
2022/08/12 15:51:08;;;;;;;9.52;1.80;;;;;;;;;;5012049;28;20680;-63
2022/08/12 15:56:17;;;;;;;5.47;1.80;;;;;;;;;;5012326;28;20266;-64
2022/08/12 15:58:42;;;;;;;5.57;1.63;;;;;;;;;;5011997;28;20212;-63
2022/08/12 16:01:10;;;;;;;4.28;1.65;;;;;;;;;;5012102;28;20302;-63
2022/08/12 16:03:35;;;;;;;4.95;1.35;;;;;;;;;;5012656;28;20738;-63
2022/08/12 16:06:01;;;;;;;3.80;1.73;;;;;;;;;;5011780;28;20291;-67
2022/08/12 16:08:28;;;;;;;4.90;1.40;;;;;;;;;;5012296;28;20220;-64
2022/08/12 16:10:55;;;;;;;3.83;1.40;;;;;;;;;;5012619;28;20258;-64
2022/08/12 16:13:21;;;;;;;3.78;1.60;;;;;;;;;;5011277;28;20256;-64
2022/08/12 16:15:46;;;;;;;4.05;1.70;;;;;;;;;;5012612;28;20630;-64
2022/08/12 16:18:12;;;;;;;2.72;1.50;;;;;;;;;;5012277;28;20691;-63
2022/08/12 16:20:38;;;;;;;4.95;1.40;;;;;;;;;;5011772;28;20311;-64
2022/08/12 16:23:05;;;;;;;6.28;1.67;;;;;;;;;;5012099;28;20299;-64